createdAt,value
2018-09-27T00:00:58.427Z,2.23
2018-09-27T00:03:26.414Z,2.03
2018-09-27T00:05:54.403Z,2.07
2018-09-27T00:08:22.362Z,2.17
2018-09-27T00:10:50.354Z,2.67
2018-09-27T00:13:18.324Z,2.00
2018-09-27T00:15:46.301Z,2.33
2018-09-27T00:18:14.256Z,1.83
2018-09-27T00:20:42.245Z,1.90
2018-09-27T00:23:10.299Z,1.90
2018-09-27T00:25:38.314Z,1.93
2018-09-27T00:28:06.328Z,1.90
2018-09-27T00:30:34.314Z,2.03
2018-09-27T00:33:02.314Z,1.80
2018-09-27T00:35:37.060Z,1.90
2018-09-27T00:38:05.112Z,1.83
2018-09-27T00:40:33.064Z,1.60
2018-09-27T00:43:01.123Z,1.83
2018-09-27T00:45:29.108Z,1.53
2018-09-27T00:47:57.120Z,1.73
2018-09-27T00:50:25.069Z,2.50
2018-09-27T00:52:53.054Z,1.80
2018-09-27T00:55:21.029Z,1.70
2018-09-27T00:57:49.011Z,2.20
2018-09-27T01:00:17.058Z,2.30
2018-09-27T01:02:45.024Z,2.23
2018-09-27T01:05:12.981Z,2.70
2018-09-27T01:07:40.973Z,1.97
2018-09-27T01:10:08.988Z,2.30
2018-09-27T01:12:36.944Z,2.50
2018-09-27T01:15:04.951Z,2.20
2018-09-27T01:17:32.977Z,2.00
2018-09-27T01:20:01.059Z,2.40
2018-09-27T01:22:29.058Z,2.53
2018-09-27T01:24:57.035Z,2.40
2018-09-27T01:27:25.097Z,2.63
2018-09-27T01:29:53.077Z,2.40
2018-09-27T01:32:21.100Z,2.00
2018-09-27T01:34:49.111Z,2.07
2018-09-27T01:37:17.144Z,2.40
2018-09-27T01:39:45.151Z,2.10
2018-09-27T01:42:13.122Z,2.17
2018-09-27T01:44:41.146Z,2.87
2018-09-27T01:47:09.280Z,2.67
2018-09-27T01:49:37.207Z,2.37
2018-09-27T01:52:05.688Z,1.83
2018-09-27T01:54:33.632Z,2.00
2018-09-27T01:57:01.700Z,2.23
2018-09-27T01:59:29.710Z,2.00
2018-09-27T02:01:57.690Z,2.00
2018-09-27T02:04:25.711Z,2.60
2018-09-27T02:06:53.663Z,2.20
2018-09-27T02:09:21.657Z,1.80
2018-09-27T02:11:49.655Z,1.83
2018-09-27T02:14:17.675Z,2.07
2018-09-27T02:16:45.677Z,2.93
2018-09-27T02:19:13.668Z,2.77
2018-09-27T02:21:41.648Z,2.37
2018-09-27T02:24:09.588Z,2.10
2018-09-27T02:26:37.584Z,2.30
2018-09-27T02:29:05.736Z,2.13
2018-09-27T02:31:33.723Z,2.57
2018-09-27T02:34:01.752Z,1.80
2018-09-27T02:36:29.740Z,1.80
2018-09-27T02:38:57.769Z,1.90
2018-09-27T02:41:25.722Z,2.00
2018-09-27T02:43:53.652Z,1.70
2018-09-27T02:46:21.649Z,1.87
2018-09-27T02:48:49.649Z,2.47
2018-09-27T02:51:17.751Z,2.07
2018-09-27T02:53:45.753Z,2.27
2018-09-27T02:56:13.745Z,2.70
2018-09-27T02:58:41.783Z,2.60
2018-09-27T03:01:09.855Z,2.27
2018-09-27T03:03:37.913Z,3.00
2018-09-27T03:06:06.234Z,2.07
2018-09-27T03:08:34.217Z,2.10
2018-09-27T03:11:02.202Z,2.50
2018-09-27T03:13:30.218Z,2.50
2018-09-27T03:15:58.253Z,2.13
2018-09-27T03:18:26.269Z,2.87
2018-09-27T03:20:54.270Z,2.30
2018-09-27T03:23:22.197Z,2.37
2018-09-27T03:25:50.173Z,2.50
2018-09-27T03:28:18.138Z,2.00
2018-09-27T03:30:46.169Z,2.17
2018-09-27T03:33:18.473Z,2.40
2018-09-27T03:38:20.037Z,2.33
2018-09-27T03:40:48.084Z,2.47
2018-09-27T03:43:16.700Z,2.90
2018-09-27T03:45:44.743Z,2.63
2018-09-27T03:48:13.275Z,2.77
2018-09-27T03:50:41.294Z,2.37
2018-09-27T03:53:09.269Z,2.67
2018-09-27T03:55:37.220Z,2.07
2018-09-27T03:58:05.492Z,2.33
2018-09-27T04:00:33.554Z,2.63
2018-09-27T04:03:01.713Z,2.37
2018-09-27T04:05:29.707Z,2.53
2018-09-27T04:07:57.662Z,2.60
2018-09-27T04:10:25.654Z,3.50
2018-09-27T04:12:53.622Z,2.43
2018-09-27T04:15:21.614Z,3.47
2018-09-27T04:17:49.619Z,2.97
2018-09-27T04:20:17.555Z,3.27
2018-09-27T04:22:45.491Z,3.40
2018-09-27T04:25:13.477Z,2.87
2018-09-27T04:27:41.460Z,2.20
2018-09-27T04:30:09.495Z,2.57
2018-09-27T04:32:37.447Z,3.03
2018-09-27T04:35:06.157Z,2.47
2018-09-27T04:37:34.136Z,3.73
2018-09-27T04:40:02.094Z,3.27
2018-09-27T04:42:30.089Z,2.47
2018-09-27T04:44:58.646Z,2.70
2018-09-27T04:47:26.638Z,2.97
2018-09-27T04:49:54.811Z,3.73
2018-09-27T04:52:22.756Z,2.73
2018-09-27T04:54:50.720Z,3.57
2018-09-27T04:57:18.912Z,4.20
2018-09-27T04:59:47.089Z,2.97
2018-09-27T05:02:15.068Z,3.13
2018-09-27T05:04:43.016Z,2.33
2018-09-27T05:07:11.009Z,2.43
2018-09-27T05:09:39.100Z,2.87
2018-09-27T05:12:07.135Z,2.83
2018-09-27T05:14:35.167Z,3.37
2018-09-27T05:17:03.193Z,2.30
2018-09-27T05:19:31.330Z,3.17
2018-09-27T05:21:59.281Z,2.90
2018-09-27T05:24:27.290Z,3.63
2018-09-27T05:26:55.270Z,3.80
2018-09-27T05:29:23.254Z,5.40
2018-09-27T05:31:51.217Z,3.77
2018-09-27T05:34:19.213Z,5.73
2018-09-27T05:36:47.184Z,2.97
2018-09-27T05:39:15.107Z,3.50
2018-09-27T05:41:43.100Z,4.03
2018-09-27T05:44:11.088Z,3.40
2018-09-27T05:46:39.120Z,2.83
2018-09-27T05:49:07.086Z,4.07
2018-09-27T05:51:35.142Z,3.40
2018-09-27T05:54:03.155Z,4.63
2018-09-27T05:56:31.153Z,3.90
2018-09-27T05:58:59.102Z,3.23
2018-09-27T06:01:27.164Z,4.13
2018-09-27T06:03:55.161Z,3.97
2018-09-27T06:06:23.187Z,3.93
2018-09-27T06:08:51.191Z,4.20
2018-09-27T06:11:19.171Z,3.03
2018-09-27T06:13:47.162Z,4.47
2018-09-27T06:16:15.106Z,3.83
2018-09-27T06:18:43.034Z,3.10
2018-09-27T06:21:11.004Z,3.43
2018-09-27T06:23:38.996Z,3.27
2018-09-27T06:26:06.991Z,5.90
2018-09-27T06:28:34.971Z,3.83
2018-09-27T06:31:02.948Z,3.47
2018-09-27T06:33:30.960Z,3.57
2018-09-27T06:35:58.851Z,2.93
2018-09-27T06:38:26.875Z,3.77
2018-09-27T06:40:54.864Z,3.37
2018-09-27T06:43:22.836Z,3.37
2018-09-27T06:45:50.769Z,4.20
2018-09-27T06:48:18.717Z,3.97
2018-09-27T06:50:46.712Z,3.83
2018-09-27T06:53:14.699Z,3.93
2018-09-27T06:55:42.767Z,3.97
2018-09-27T06:58:10.714Z,3.47
2018-09-27T07:00:38.713Z,3.37
2018-09-27T07:03:06.684Z,3.63
2018-09-27T07:05:34.705Z,3.50
2018-09-27T07:08:02.736Z,3.47
2018-09-27T07:10:30.667Z,3.73
2018-09-27T07:12:58.647Z,3.67
2018-09-27T07:15:26.635Z,3.63
2018-09-27T07:17:54.610Z,3.20
2018-09-27T07:20:22.601Z,3.40
2018-09-27T07:22:50.576Z,3.30
2018-09-27T07:25:18.668Z,2.97
2018-09-27T07:27:46.615Z,3.17
2018-09-27T07:30:14.548Z,3.63
2018-09-27T07:32:43.564Z,3.37
2018-09-27T07:35:11.568Z,3.47
2018-09-27T07:37:39.596Z,3.93
2018-09-27T07:40:07.598Z,4.00
2018-09-27T07:42:35.649Z,3.70
2018-09-27T07:45:03.840Z,4.10
2018-09-27T07:47:31.843Z,3.63
2018-09-27T07:49:59.796Z,3.27
2018-09-27T07:52:27.807Z,3.67
2018-09-27T07:54:55.783Z,3.63
2018-09-27T07:57:23.736Z,3.03
2018-09-27T07:59:52.296Z,3.30
2018-09-27T08:02:20.248Z,3.60
2018-09-27T08:04:48.210Z,3.00
2018-09-27T08:07:16.250Z,3.03
2018-09-27T08:09:44.198Z,3.47
2018-09-27T08:12:12.170Z,3.33
2018-09-27T08:14:40.204Z,3.40
2018-09-27T08:17:08.161Z,3.37
2018-09-27T08:19:36.160Z,3.63
2018-09-27T08:22:04.111Z,3.17
2018-09-27T08:24:32.090Z,3.10
2018-09-27T08:27:00.072Z,3.30
2018-09-27T08:29:28.053Z,3.37
2018-09-27T08:31:56.013Z,3.27
2018-09-27T08:34:24.015Z,2.70
2018-09-27T08:36:51.972Z,3.30
2018-09-27T08:39:19.929Z,3.90
2018-09-27T08:41:47.911Z,2.72
2018-09-27T08:44:15.982Z,3.08
2018-09-27T08:46:44.074Z,2.90
2018-09-27T08:49:12.127Z,3.52
2018-09-27T08:51:40.304Z,3.27
2018-09-27T08:54:08.324Z,2.52
2018-09-27T08:56:36.368Z,2.65
2018-09-27T08:59:04.442Z,2.62
2018-09-27T09:01:32.590Z,2.72
2018-09-27T09:04:00.697Z,2.72
2018-09-27T09:06:28.706Z,2.62
2018-09-27T09:08:56.727Z,2.50
2018-09-27T09:11:24.876Z,2.58
2018-09-27T09:13:52.970Z,2.80
2018-09-27T09:16:21.067Z,2.65
2018-09-27T09:18:49.227Z,2.20
2018-09-27T09:21:17.262Z,2.50
2018-09-27T09:23:45.347Z,2.50
2018-09-27T09:26:14.155Z,2.52
2018-09-27T09:28:42.227Z,2.55
2018-09-27T09:31:10.265Z,2.62
2018-09-27T09:33:38.458Z,2.12
2018-09-27T09:36:06.607Z,2.35
2018-09-27T09:38:34.677Z,2.33
2018-09-27T09:41:02.811Z,2.85
2018-09-27T09:43:30.869Z,2.02
2018-09-27T09:45:59.036Z,2.95
2018-09-27T09:48:27.080Z,2.65
2018-09-27T09:50:55.392Z,2.72
2018-09-27T09:53:23.464Z,2.17
2018-09-27T09:55:51.545Z,2.42
2018-09-27T09:58:19.677Z,2.50
2018-09-27T10:00:47.789Z,2.60
2018-09-27T10:03:15.920Z,2.58
2018-09-27T10:05:43.989Z,2.20
2018-09-27T10:08:12.048Z,2.35
2018-09-27T10:10:40.156Z,2.45
2018-09-27T10:13:08.229Z,2.50
2018-09-27T10:15:36.346Z,2.30
2018-09-27T10:18:04.564Z,2.45
2018-09-27T10:20:32.668Z,2.30
2018-09-27T10:23:00.769Z,2.65
2018-09-27T10:25:28.883Z,2.17
2018-09-27T10:27:56.976Z,2.08
2018-09-27T10:30:25.074Z,2.60
2018-09-27T10:32:53.311Z,2.65
2018-09-27T10:35:21.400Z,2.42
2018-09-27T10:37:49.483Z,1.90
2018-09-27T10:40:17.574Z,2.37
2018-09-27T10:42:45.757Z,2.40
2018-09-27T10:45:13.853Z,1.80
2018-09-27T10:47:41.982Z,2.37
2018-09-27T10:50:10.148Z,1.80
2018-09-27T10:52:38.221Z,2.70
2018-09-27T10:55:06.320Z,2.50
2018-09-27T10:57:34.436Z,1.27
2018-09-27T11:00:02.536Z,1.52
2018-09-27T11:02:30.599Z,1.70
2018-09-27T11:04:58.691Z,2.02
2018-09-27T11:07:26.751Z,1.87
2018-09-27T11:09:54.832Z,1.60
2018-09-27T11:12:22.919Z,1.65
2018-09-27T11:14:51.031Z,1.90
2018-09-27T11:17:19.115Z,1.72
2018-09-27T11:19:47.236Z,1.60
2018-09-27T11:22:15.327Z,1.77
2018-09-27T11:24:43.514Z,1.42
2018-09-27T11:27:11.600Z,1.52
2018-09-27T11:29:45.137Z,1.77
2018-09-27T11:32:18.583Z,1.60
2018-09-27T11:34:46.643Z,2.47
2018-09-27T11:37:14.940Z,2.17
2018-09-27T11:39:43.031Z,1.60
2018-09-27T11:42:11.093Z,1.70
2018-09-27T11:44:40.026Z,1.40
2018-09-27T11:47:08.097Z,1.35
2018-09-27T11:49:36.380Z,1.50
2018-09-27T11:52:04.286Z,1.50
2018-09-27T11:54:32.396Z,1.70
2018-09-27T11:57:00.435Z,1.55
2018-09-27T11:59:28.907Z,1.60
2018-09-27T12:01:57.064Z,1.90
2018-09-27T12:04:25.148Z,1.57
2018-09-27T12:06:53.197Z,1.55
2018-09-27T12:09:21.291Z,1.40
2018-09-27T12:11:49.394Z,1.45
2018-09-27T12:14:17.637Z,1.60
2018-09-27T12:16:45.996Z,1.80
2018-09-27T12:19:13.999Z,1.50
2018-09-27T12:21:42.069Z,1.80
2018-09-27T12:24:10.207Z,1.40
2018-09-27T12:26:38.276Z,1.30
2018-09-27T12:29:06.377Z,2.02
2018-09-27T12:31:34.460Z,2.20
2018-09-27T12:34:02.556Z,1.50
2018-09-27T12:36:30.574Z,1.25
2018-09-27T12:38:58.707Z,1.55
2018-09-27T12:41:26.791Z,1.27
2018-09-27T12:43:54.852Z,1.60
2018-09-27T12:46:22.968Z,1.47
2018-09-27T12:48:51.089Z,1.50
2018-09-27T12:51:19.299Z,1.30
2018-09-27T12:53:47.263Z,1.30
2018-09-27T12:56:15.395Z,1.55
2018-09-27T12:58:43.527Z,1.37
2018-09-27T13:01:11.659Z,1.20
2018-09-27T13:03:39.742Z,1.40
2018-09-27T13:06:08.372Z,1.35
2018-09-27T13:08:36.443Z,1.90
2018-09-27T13:11:04.557Z,1.42
2018-09-27T13:13:32.815Z,1.20
2018-09-27T13:16:00.745Z,1.50
2018-09-27T13:18:28.849Z,1.40
2018-09-27T13:20:56.907Z,1.55
2018-09-27T13:23:25.080Z,1.32
2018-09-27T13:25:53.150Z,1.87
2018-09-27T13:28:21.319Z,1.20
2018-09-27T13:30:49.403Z,1.62
2018-09-27T13:33:17.498Z,1.50
2018-09-27T13:35:45.549Z,1.40
2018-09-27T13:38:13.664Z,1.55
2018-09-27T13:40:41.738Z,1.42
2018-09-27T13:43:09.839Z,1.42
2018-09-27T13:45:37.890Z,1.32
2018-09-27T13:48:05.992Z,1.50
2018-09-27T13:50:34.106Z,1.75
2018-09-27T13:53:02.157Z,1.40
2018-09-27T13:55:30.268Z,1.60
2018-09-27T13:57:58.359Z,1.47
2018-09-27T14:00:26.425Z,1.27
2018-09-27T14:02:54.549Z,1.32
2018-09-27T14:05:22.678Z,1.65
2018-09-27T14:07:50.818Z,1.65
2018-09-27T14:10:18.937Z,1.50
2018-09-27T14:12:46.993Z,1.27
2018-09-27T14:15:15.061Z,1.50
2018-09-27T14:17:43.180Z,1.42
2018-09-27T14:20:11.366Z,1.30
2018-09-27T14:22:39.445Z,1.52
2018-09-27T14:25:07.770Z,1.50
2018-09-27T14:27:35.981Z,1.50
2018-09-27T14:30:04.188Z,1.62
2018-09-27T14:32:32.241Z,1.47
2018-09-27T14:35:00.351Z,1.35
2018-09-27T14:37:28.464Z,1.20
2018-09-27T14:39:56.609Z,1.30
2018-09-27T14:42:24.725Z,1.10
2018-09-27T14:44:52.819Z,1.70
2018-09-27T14:47:20.931Z,1.20
2018-09-27T14:49:49.008Z,1.80
2018-09-27T14:52:17.083Z,0.80
2018-09-27T14:54:45.214Z,1.20
2018-09-27T14:57:13.291Z,1.40
2018-09-27T14:59:41.434Z,1.40
2018-09-27T15:02:09.618Z,1.40
2018-09-27T15:04:37.646Z,1.10
2018-09-27T15:07:05.690Z,1.20
2018-09-27T15:09:33.871Z,1.30
2018-09-27T15:12:01.933Z,1.40
2018-09-27T15:14:30.016Z,1.40
2018-09-27T15:16:58.080Z,1.20
2018-09-27T15:19:26.147Z,1.30
2018-09-27T15:21:54.192Z,1.20
2018-09-27T15:24:22.264Z,1.20
2018-09-27T15:26:50.332Z,1.40
2018-09-27T15:29:18.403Z,1.10
2018-09-27T15:31:46.518Z,1.37
2018-09-27T15:34:14.539Z,1.40
2018-09-27T15:36:42.600Z,1.50
2018-09-27T15:39:10.715Z,1.30
2018-09-27T15:41:38.785Z,1.40
2018-09-27T15:44:06.908Z,1.53
2018-09-27T15:46:35.009Z,2.03
2018-09-27T15:49:03.764Z,1.67
2018-09-27T15:51:31.979Z,1.63
2018-09-27T15:54:00.010Z,1.57
2018-09-27T15:56:28.199Z,1.47
2018-09-27T15:58:56.261Z,1.70
2018-09-27T16:01:24.329Z,1.60
2018-09-27T16:03:52.450Z,1.60
2018-09-27T16:06:20.507Z,1.53
2018-09-27T16:08:48.578Z,1.40
2018-09-27T16:11:16.681Z,1.33
2018-09-27T16:13:45.108Z,1.73
2018-09-27T16:16:13.180Z,1.73
2018-09-27T16:18:41.351Z,2.27
2018-09-27T16:21:09.405Z,1.57
2018-09-27T16:23:37.591Z,1.60
2018-09-27T16:26:06.665Z,1.30
2018-09-27T16:28:34.775Z,1.27
2018-09-27T16:31:02.881Z,1.60
2018-09-27T16:33:31.090Z,1.87
2018-09-27T16:35:59.165Z,2.20
2018-09-27T16:38:27.308Z,2.20
2018-09-27T16:40:55.371Z,2.30
2018-09-27T16:43:23.499Z,1.50
2018-09-27T16:45:51.620Z,1.70
2018-09-27T16:48:19.731Z,1.77
2018-09-27T16:50:47.931Z,2.07
2018-09-27T16:53:16.089Z,1.80
2018-09-27T16:55:44.192Z,1.87
2018-09-27T16:58:12.329Z,2.27
2018-09-27T17:00:40.419Z,2.00
2018-09-27T17:03:08.479Z,2.33
2018-09-27T17:05:36.747Z,1.50
2018-09-27T17:08:04.946Z,1.90
2018-09-27T17:10:33.320Z,1.60
2018-09-27T17:13:03.535Z,1.83
2018-09-27T17:15:38.669Z,1.70
2018-09-27T17:18:08.652Z,1.90
2018-09-27T17:20:37.049Z,1.60
2018-09-27T17:23:05.968Z,1.57
2018-09-27T17:25:35.187Z,2.03
2018-09-27T17:28:03.501Z,1.93
2018-09-27T17:30:32.702Z,2.27
2018-09-27T17:33:00.864Z,1.77
2018-09-27T17:35:29.023Z,1.90
2018-09-27T17:37:57.077Z,1.77
2018-09-27T17:40:25.272Z,1.93
2018-09-27T17:42:54.937Z,2.50
2018-09-27T17:45:23.096Z,2.10
2018-09-27T17:47:51.161Z,3.13
2018-09-27T17:50:19.216Z,2.63
2018-09-27T17:52:48.336Z,1.90
2018-09-27T17:55:16.469Z,1.90
2018-09-27T17:57:44.558Z,1.77
2018-09-27T18:00:12.620Z,1.97
2018-09-27T18:02:40.677Z,1.70
2018-09-27T18:05:18.980Z,1.83
2018-09-27T18:07:37.045Z,1.67
2018-09-27T18:10:05.080Z,2.23
2018-09-27T18:12:33.128Z,1.80
2018-09-27T18:15:01.218Z,2.00
2018-09-27T18:17:29.337Z,2.23
2018-09-27T18:19:57.732Z,1.70
2018-09-27T18:22:25.915Z,1.77
2018-09-27T18:24:53.999Z,1.60
2018-09-27T18:27:22.086Z,1.87
2018-09-27T18:29:50.294Z,2.33
2018-09-27T18:32:18.524Z,2.37
2018-09-27T18:34:46.607Z,2.00
2018-09-27T18:37:14.678Z,2.20
2018-09-27T18:39:42.784Z,2.27
2018-09-27T18:42:10.902Z,2.00
2018-09-27T18:44:39.110Z,1.70
2018-09-27T18:47:07.400Z,1.83
2018-09-27T18:49:35.539Z,2.10
2018-09-27T18:52:04.611Z,2.00
2018-09-27T18:54:33.116Z,2.13
2018-09-27T18:57:01.225Z,2.20
2018-09-27T18:59:29.285Z,2.37
2018-09-27T19:01:57.416Z,1.87
2018-09-27T19:04:25.540Z,1.70
2018-09-27T19:06:53.621Z,2.50
2018-09-27T19:09:21.980Z,2.33
2018-09-27T19:11:50.058Z,2.70
2018-09-27T19:14:18.292Z,2.40
2018-09-27T19:16:48.015Z,1.93
2018-09-27T19:19:16.245Z,1.87
2018-09-27T19:21:45.289Z,2.20
2018-09-27T19:24:13.502Z,1.90
2018-09-27T19:26:41.644Z,2.03
2018-09-27T19:29:10.647Z,1.67
2018-09-27T19:31:39.024Z,3.13
2018-09-27T19:34:07.259Z,2.00
2018-09-27T19:36:35.670Z,2.17
2018-09-27T19:39:05.133Z,2.33
2018-09-27T19:41:33.207Z,2.30
2018-09-27T19:44:01.401Z,2.40
2018-09-27T19:46:29.806Z,2.00
2018-09-27T19:48:58.906Z,2.03
2018-09-27T19:51:27.025Z,2.30
2018-09-27T19:53:55.068Z,1.90
2018-09-27T19:56:23.125Z,2.10
2018-09-27T19:58:51.246Z,2.43
2018-09-27T20:01:19.333Z,1.93
2018-09-27T20:03:47.388Z,2.03
2018-09-27T20:06:15.725Z,1.80
2018-09-27T20:08:43.813Z,1.80
2018-09-27T20:11:11.917Z,2.50
2018-09-27T20:13:39.979Z,2.73
2018-09-27T20:16:08.172Z,1.77
2018-09-27T20:18:36.172Z,1.90
2018-09-27T20:21:04.245Z,2.30
2018-09-27T20:23:32.301Z,1.93
2018-09-27T20:26:01.222Z,2.03
2018-09-27T20:28:29.390Z,2.30
2018-09-27T20:30:57.399Z,2.43
2018-09-27T20:33:25.559Z,2.60
2018-09-27T20:35:53.643Z,1.97
2018-09-27T20:38:21.734Z,2.17
2018-09-27T20:40:49.800Z,2.50
2018-09-27T20:43:17.866Z,1.80
2018-09-27T20:45:45.985Z,2.60
2018-09-27T20:48:14.047Z,2.23
2018-09-27T20:50:42.129Z,2.60
2018-09-27T20:53:10.175Z,2.10
2018-09-27T20:55:38.249Z,2.57
2018-09-27T20:58:06.373Z,2.17
2018-09-27T21:00:34.458Z,3.00
2018-09-27T21:03:02.593Z,2.03
2018-09-27T21:05:30.651Z,2.43
2018-09-27T21:07:58.734Z,2.17
2018-09-27T21:10:26.855Z,2.30
2018-09-27T21:12:55.035Z,2.37
2018-09-27T21:15:23.148Z,2.43
2018-09-27T21:17:51.230Z,2.40
2018-09-27T21:20:19.313Z,2.13
2018-09-27T21:22:47.363Z,2.27
2018-09-27T21:25:15.424Z,2.33
2018-09-27T21:27:43.498Z,1.90
2018-09-27T21:30:11.578Z,2.13
2018-09-27T21:32:39.677Z,2.67
2018-09-27T21:35:07.871Z,2.50
2018-09-27T21:37:35.946Z,2.63
2018-09-27T21:40:04.371Z,2.70
2018-09-27T21:42:32.444Z,2.20
2018-09-27T21:45:00.530Z,1.80
2018-09-27T21:47:28.589Z,2.03
2018-09-27T21:49:56.793Z,2.03
2018-09-27T21:52:24.786Z,2.33
2018-09-27T21:54:52.861Z,2.23
2018-09-27T21:57:21.073Z,2.17
2018-09-27T21:59:49.285Z,1.90
2018-09-27T22:02:17.403Z,2.17
2018-09-27T22:04:45.512Z,2.20
2018-09-27T22:07:13.587Z,2.33
2018-09-27T22:09:41.636Z,2.47
2018-09-27T22:12:09.953Z,2.10
2018-09-27T22:14:38.051Z,3.00
2018-09-27T22:17:06.143Z,2.83
2018-09-27T22:19:34.239Z,2.10
2018-09-27T22:22:02.321Z,2.83
2018-09-27T22:24:30.420Z,2.27
2018-09-27T22:26:58.494Z,2.40
2018-09-27T22:29:26.557Z,2.47
2018-09-27T22:31:54.618Z,2.47
2018-09-27T22:34:22.685Z,2.33
2018-09-27T22:36:50.730Z,3.37
2018-09-27T22:39:18.823Z,2.80
2018-09-27T22:41:47.646Z,3.13
2018-09-27T22:44:15.799Z,2.87
2018-09-27T22:46:43.861Z,2.80
2018-09-27T22:49:11.927Z,2.60
2018-09-27T22:51:40.038Z,2.97
2018-09-27T22:54:08.217Z,3.17
2018-09-27T22:56:36.260Z,2.80
2018-09-27T22:59:04.367Z,2.40
2018-09-27T23:01:32.403Z,3.77
2018-09-27T23:04:00.481Z,3.77
2018-09-27T23:06:28.655Z,5.20
2018-09-27T23:08:56.715Z,6.33
2018-09-27T23:11:29.711Z,5.30
2018-09-27T23:13:57.791Z,4.07
2018-09-27T23:16:25.863Z,4.47
2018-09-27T23:18:53.946Z,4.10
2018-09-27T23:21:22.042Z,2.93
2018-09-27T23:23:50.123Z,3.37
2018-09-27T23:26:18.166Z,3.23
2018-09-27T23:28:46.225Z,3.20
2018-09-27T23:31:14.405Z,4.00
2018-09-27T23:33:42.480Z,3.07
2018-09-27T23:36:10.530Z,3.83
2018-09-27T23:38:38.669Z,3.07
2018-09-27T23:41:06.756Z,3.57
2018-09-27T23:43:34.809Z,3.07
2018-09-27T23:46:02.959Z,2.50
2018-09-27T23:48:31.000Z,3.63
2018-09-27T23:50:59.044Z,2.87
2018-09-27T23:53:27.117Z,2.70
2018-09-27T23:55:55.171Z,2.73
2018-09-27T23:58:23.297Z,2.70
